sensor_id;sensor_type;location;lat;lon;timestamp;pressure;altitude;pressure_sealevel;temperature;humidity
31062;BME280;17724;53.546;9.974;2024-01-15T00:02:20;99260.84;;;3.06;100.00
31062;BME280;17724;53.546;9.974;2024-01-15T00:06:21;99250.66;;;2.96;100.00
31062;BME280;17724;53.546;9.974;2024-01-15T00:10:22;99256.56;;;3.10;100.00
31062;BME280;17724;53.546;9.974;2024-01-15T00:14:23;99253.38;;;2.51;100.00
31062;BME280;17724;53.546;9.974;2024-01-15T00:18:24;99238.19;;;2.50;100.00
31062;BME280;17724;53.546;9.974;2024-01-15T00:22:25;99260.81;;;2.56;100.00
31062;BME280;17724;53.546;9.974;2024-01-15T00:26:26;99246.19;;;2.57;100.00
31062;BME280;17724;53.546;9.974;2024-01-15T00:30:27;99244.03;;;2.59;100.00
31062;BME280;17724;53.546;9.974;2024-01-15T00:34:28;99236.66;;;2.71;100.00
31062;BME280;17724;53.546;9.974;2024-01-15T00:38:28;99206.22;;;2.86;100.00
31062;BME280;17724;53.546;9.974;2024-01-15T00:42:28;99192.25;;;2.60;100.00
31062;BME280;17724;53.546;9.974;2024-01-15T00:46:29;99199.78;;;2.58;100.00
31062;BME280;17724;53.546;9.974;2024-01-15T00:50:29;99209.00;;;2.74;100.00
31062;BME280;17724;53.546;9.974;2024-01-15T00:54:30;99189.78;;;2.76;100.00
31062;BME280;17724;53.546;9.974;2024-01-15T00:58:30;99173.31;;;2.65;100.00
31062;BME280;17724;53.546;9.974;2024-01-15T01:02:31;99188.72;;;2.60;100.00
31062;BME280;17724;53.546;9.974;2024-01-15T01:06:31;99189.59;;;2.82;100.00
31062;BME280;17724;53.546;9.974;2024-01-15T01:10:32;99170.91;;;3.03;100.00
31062;BME280;17724;53.546;9.974;2024-01-15T01:14:32;99164.84;;;2.95;100.00
31062;BME280;17724;53.546;9.974;2024-01-15T01:18:33;99161.63;;;2.99;100.00
31062;BME280;17724;53.546;9.974;2024-01-15T01:22:33;99131.53;;;2.66;100.00
31062;BME280;17724;53.546;9.974;2024-01-15T01:26:34;99139.53;;;2.73;100.00
31062;BME280;17724;53.546;9.974;2024-01-15T01:30:34;99125.38;;;2.88;100.00
31062;BME280;17724;53.546;9.974;2024-01-15T01:34:40;99128.97;;;2.93;100.00
31062;BME280;17724;53.546;9.974;2024-01-15T01:38:42;99106.97;;;2.95;100.00
31062;BME280;17724;53.546;9.974;2024-01-15T01:42:42;99127.72;;;3.01;100.00
31062;BME280;17724;53.546;9.974;2024-01-15T01:46:43;99129.97;;;2.87;100.00
31062;BME280;17724;53.546;9.974;2024-01-15T01:50:44;99126.31;;;2.99;100.00
31062;BME280;17724;53.546;9.974;2024-01-15T01:54:44;99127.28;;;3.09;100.00
31062;BME280;17724;53.546;9.974;2024-01-15T01:58:46;99122.22;;;2.96;100.00
31062;BME280;17724;53.546;9.974;2024-01-15T02:02:48;99113.00;;;2.97;100.00
31062;BME280;17724;53.546;9.974;2024-01-15T02:06:48;99107.41;;;2.87;100.00
31062;BME280;17724;53.546;9.974;2024-01-15T02:10:49;99115.59;;;2.70;100.00
31062;BME280;17724;53.546;9.974;2024-01-15T02:14:49;99101.91;;;2.82;100.00
31062;BME280;17724;53.546;9.974;2024-01-15T02:18:50;99098.44;;;2.86;100.00
31062;BME280;17724;53.546;9.974;2024-01-15T02:22:50;99109.19;;;2.98;100.00
31062;BME280;17724;53.546;9.974;2024-01-15T02:26:51;99124.75;;;3.03;100.00
31062;BME280;17724;53.546;9.974;2024-01-15T02:30:51;99127.44;;;2.81;100.00
31062;BME280;17724;53.546;9.974;2024-01-15T02:34:52;99113.81;;;2.97;100.00
31062;BME280;17724;53.546;9.974;2024-01-15T02:38:52;99108.94;;;3.16;100.00
31062;BME280;17724;53.546;9.974;2024-01-15T02:42:53;99099.88;;;2.72;100.00
31062;BME280;17724;53.546;9.974;2024-01-15T02:46:53;99102.84;;;3.09;100.00
31062;BME280;17724;53.546;9.974;2024-01-15T02:50:54;99120.75;;;3.27;100.00
31062;BME280;17724;53.546;9.974;2024-01-15T02:54:54;99120.13;;;3.20;100.00
31062;BME280;17724;53.546;9.974;2024-01-15T02:58:55;99118.88;;;3.11;100.00
31062;BME280;17724;53.546;9.974;2024-01-15T03:02:55;99124.94;;;2.96;100.00
31062;BME280;17724;53.546;9.974;2024-01-15T03:06:56;99128.44;;;3.13;100.00
31062;BME280;17724;53.546;9.974;2024-01-15T03:10:56;99123.66;;;3.20;100.00
31062;BME280;17724;53.546;9.974;2024-01-15T03:14:57;99129.13;;;3.04;100.00
31062;BME280;17724;53.546;9.974;2024-01-15T03:18:57;99106.66;;;3.08;100.00
31062;BME280;17724;53.546;9.974;2024-01-15T03:22:58;99120.94;;;3.20;100.00
31062;BME280;17724;53.546;9.974;2024-01-15T03:26:58;99126.00;;;2.95;100.00
31062;BME280;17724;53.546;9.974;2024-01-15T03:30:59;99141.31;;;3.01;100.00
31062;BME280;17724;53.546;9.974;2024-01-15T03:34:59;99148.25;;;3.14;100.00
31062;BME280;17724;53.546;9.974;2024-01-15T03:39:00;99149.78;;;3.05;100.00
31062;BME280;17724;53.546;9.974;2024-01-15T03:43:01;99132.81;;;2.97;100.00
31062;BME280;17724;53.546;9.974;2024-01-15T03:47:01;99122.06;;;2.86;100.00
31062;BME280;17724;53.546;9.974;2024-01-15T03:51:02;99152.31;;;2.94;100.00
31062;BME280;17724;53.546;9.974;2024-01-15T03:55:04;99149.41;;;3.18;100.00
31062;BME280;17724;53.546;9.974;2024-01-15T03:59:04;99158.66;;;3.00;100.00
31062;BME280;17724;53.546;9.974;2024-01-15T04:03:05;99152.84;;;3.30;100.00
31062;BME280;17724;53.546;9.974;2024-01-15T04:07:06;99149.34;;;3.13;100.00
31062;BME280;17724;53.546;9.974;2024-01-15T04:11:06;99152.38;;;3.16;100.00
31062;BME280;17724;53.546;9.974;2024-01-15T04:15:07;99148.66;;;3.22;100.00
31062;BME280;17724;53.546;9.974;2024-01-15T04:19:07;99155.44;;;3.42;100.00
31062;BME280;17724;53.546;9.974;2024-01-15T04:23:08;99161.81;;;3.31;100.00
31062;BME280;17724;53.546;9.974;2024-01-15T04:27:08;99162.28;;;3.44;100.00
31062;BME280;17724;53.546;9.974;2024-01-15T04:31:09;99169.34;;;3.45;100.00
31062;BME280;17724;53.546;9.974;2024-01-15T04:35:09;99168.25;;;3.46;100.00
31062;BME280;17724;53.546;9.974;2024-01-15T04:39:10;99167.75;;;3.50;100.00
31062;BME280;17724;53.546;9.974;2024-01-15T04:43:11;99163.03;;;3.40;100.00
31062;BME280;17724;53.546;9.974;2024-01-15T04:47:12;99156.94;;;3.33;100.00
31062;BME280;17724;53.546;9.974;2024-01-15T04:51:12;99156.72;;;3.56;100.00
31062;BME280;17724;53.546;9.974;2024-01-15T04:55:13;99160.63;;;3.43;100.00
31062;BME280;17724;53.546;9.974;2024-01-15T04:59:13;99159.13;;;3.53;100.00
31062;BME280;17724;53.546;9.974;2024-01-15T05:03:14;99163.16;;;3.50;100.00
31062;BME280;17724;53.546;9.974;2024-01-15T05:07:15;99170.09;;;3.41;100.00
31062;BME280;17724;53.546;9.974;2024-01-15T05:11:16;99154.19;;;3.28;100.00
31062;BME280;17724;53.546;9.974;2024-01-15T05:15:16;99159.59;;;3.28;100.00
31062;BME280;17724;53.546;9.974;2024-01-15T05:19:18;99159.72;;;3.16;100.00
31062;BME280;17724;53.546;9.974;2024-01-15T05:23:18;99153.91;;;3.07;100.00
31062;BME280;17724;53.546;9.974;2024-01-15T05:27:19;99160.97;;;3.30;100.00
31062;BME280;17724;53.546;9.974;2024-01-15T05:31:19;99174.72;;;3.40;100.00
31062;BME280;17724;53.546;9.974;2024-01-15T05:35:20;99163.41;;;3.10;100.00
31062;BME280;17724;53.546;9.974;2024-01-15T05:39:20;99178.34;;;3.07;100.00
31062;BME280;17724;53.546;9.974;2024-01-15T05:43:21;99173.97;;;3.45;100.00
31062;BME280;17724;53.546;9.974;2024-01-15T05:47:21;99163.16;;;3.50;100.00
31062;BME280;17724;53.546;9.974;2024-01-15T05:51:22;99166.84;;;3.61;100.00
31062;BME280;17724;53.546;9.974;2024-01-15T05:55:22;99166.38;;;3.47;100.00
31062;BME280;17724;53.546;9.974;2024-01-15T05:59:23;99179.13;;;3.46;100.00
31062;BME280;17724;53.546;9.974;2024-01-15T06:03:23;99174.28;;;3.49;100.00
31062;BME280;17724;53.546;9.974;2024-01-15T06:07:24;99173.53;;;3.31;100.00
31062;BME280;17724;53.546;9.974;2024-01-15T06:11:29;99174.13;;;3.38;100.00
31062;BME280;17724;53.546;9.974;2024-01-15T06:15:30;99183.09;;;3.56;100.00
31062;BME280;17724;53.546;9.974;2024-01-15T06:19:31;99173.63;;;3.41;100.00
31062;BME280;17724;53.546;9.974;2024-01-15T06:23:31;99184.78;;;3.40;100.00
31062;BME280;17724;53.546;9.974;2024-01-15T06:27:32;99182.81;;;3.35;100.00
31062;BME280;17724;53.546;9.974;2024-01-15T06:31:32;99165.75;;;3.40;100.00
31062;BME280;17724;53.546;9.974;2024-01-15T06:35:33;99169.22;;;3.35;100.00
31062;BME280;17724;53.546;9.974;2024-01-15T06:39:34;99179.22;;;3.52;100.00
31062;BME280;17724;53.546;9.974;2024-01-15T06:43:35;99183.09;;;3.56;100.00
31062;BME280;17724;53.546;9.974;2024-01-15T06:47:35;99177.53;;;3.67;100.00
31062;BME280;17724;53.546;9.974;2024-01-15T06:51:36;99184.34;;;3.48;100.00
31062;BME280;17724;53.546;9.974;2024-01-15T06:55:38;99189.44;;;3.44;100.00
31062;BME280;17724;53.546;9.974;2024-01-15T06:59:39;99199.44;;;3.61;100.00
31062;BME280;17724;53.546;9.974;2024-01-15T07:03:39;99188.69;;;3.49;100.00
31062;BME280;17724;53.546;9.974;2024-01-15T07:07:40;99175.84;;;3.44;100.00
31062;BME280;17724;53.546;9.974;2024-01-15T07:11:44;99188.13;;;3.69;100.00
31062;BME280;17724;53.546;9.974;2024-01-15T07:15:46;99195.53;;;3.52;100.00
31062;BME280;17724;53.546;9.974;2024-01-15T07:19:46;99194.81;;;3.61;100.00
31062;BME280;17724;53.546;9.974;2024-01-15T07:23:47;99204.00;;;3.55;100.00
31062;BME280;17724;53.546;9.974;2024-01-15T07:27:48;99210.97;;;3.68;100.00
31062;BME280;17724;53.546;9.974;2024-01-15T07:31:51;99209.81;;;3.64;100.00
31062;BME280;17724;53.546;9.974;2024-01-15T07:35:52;99220.69;;;3.64;100.00
31062;BME280;17724;53.546;9.974;2024-01-15T07:39:52;99217.41;;;3.84;100.00
31062;BME280;17724;53.546;9.974;2024-01-15T07:43:53;99227.25;;;3.90;100.00
31062;BME280;17724;53.546;9.974;2024-01-15T07:47:53;99226.28;;;3.96;100.00
31062;BME280;17724;53.546;9.974;2024-01-15T07:51:54;99211.84;;;3.95;100.00
31062;BME280;17724;53.546;9.974;2024-01-15T07:55:54;99232.84;;;4.00;100.00
31062;BME280;17724;53.546;9.974;2024-01-15T07:59:55;99236.81;;;3.92;100.00
31062;BME280;17724;53.546;9.974;2024-01-15T08:03:55;99242.25;;;4.14;100.00
31062;BME280;17724;53.546;9.974;2024-01-15T08:07:56;99245.50;;;4.11;100.00
31062;BME280;17724;53.546;9.974;2024-01-15T08:11:56;99254.09;;;4.03;100.00
31062;BME280;17724;53.546;9.974;2024-01-15T08:15:57;99252.25;;;4.09;100.00
31062;BME280;17724;53.546;9.974;2024-01-15T08:19:57;99241.00;;;4.00;100.00
31062;BME280;17724;53.546;9.974;2024-01-15T08:23:59;99242.56;;;3.74;100.00
31062;BME280;17724;53.546;9.974;2024-01-15T08:28:00;99242.56;;;3.74;100.00
31062;BME280;17724;53.546;9.974;2024-01-15T08:32:00;99249.41;;;3.77;100.00
31062;BME280;17724;53.546;9.974;2024-01-15T08:36:01;99255.09;;;3.75;100.00
31062;BME280;17724;53.546;9.974;2024-01-15T08:40:02;99262.41;;;3.53;100.00
31062;BME280;17724;53.546;9.974;2024-01-15T08:44:03;99270.28;;;3.54;100.00
31062;BME280;17724;53.546;9.974;2024-01-15T08:48:04;99277.84;;;3.69;100.00
31062;BME280;17724;53.546;9.974;2024-01-15T08:52:05;99274.50;;;3.45;100.00
31062;BME280;17724;53.546;9.974;2024-01-15T08:56:05;99271.22;;;3.26;100.00
31062;BME280;17724;53.546;9.974;2024-01-15T09:00:06;99276.69;;;3.65;100.00
31062;BME280;17724;53.546;9.974;2024-01-15T09:04:10;99263.44;;;3.68;100.00
31062;BME280;17724;53.546;9.974;2024-01-15T09:08:10;99273.81;;;3.72;100.00
31062;BME280;17724;53.546;9.974;2024-01-15T09:12:11;99268.00;;;3.46;100.00
31062;BME280;17724;53.546;9.974;2024-01-15T09:16:15;99254.06;;;3.42;100.00
31062;BME280;17724;53.546;9.974;2024-01-15T09:20:16;99277.06;;;3.52;100.00
31062;BME280;17724;53.546;9.974;2024-01-15T09:24:16;99252.78;;;3.45;100.00
31062;BME280;17724;53.546;9.974;2024-01-15T09:28:17;99272.88;;;3.44;100.00
31062;BME280;17724;53.546;9.974;2024-01-15T09:32:17;99280.09;;;3.55;100.00
31062;BME280;17724;53.546;9.974;2024-01-15T09:36:18;99271.47;;;3.41;100.00
31062;BME280;17724;53.546;9.974;2024-01-15T09:40:20;99270.06;;;3.56;100.00
31062;BME280;17724;53.546;9.974;2024-01-15T09:44:21;99285.63;;;3.27;100.00
31062;BME280;17724;53.546;9.974;2024-01-15T09:48:21;99290.66;;;3.35;100.00
31062;BME280;17724;53.546;9.974;2024-01-15T09:52:22;99322.66;;;3.66;100.00
31062;BME280;17724;53.546;9.974;2024-01-15T09:56:23;99356.56;;;3.98;100.00
31062;BME280;17724;53.546;9.974;2024-01-15T10:00:24;99354.88;;;4.13;100.00
31062;BME280;17724;53.546;9.974;2024-01-15T10:04:26;99378.31;;;3.98;100.00
31062;BME280;17724;53.546;9.974;2024-01-15T10:08:27;99384.13;;;3.67;100.00
31062;BME280;17724;53.546;9.974;2024-01-15T10:12:28;99365.16;;;3.39;100.00
31062;BME280;17724;53.546;9.974;2024-01-15T10:16:28;99349.44;;;3.41;100.00
31062;BME280;17724;53.546;9.974;2024-01-15T10:20:31;99342.84;;;3.37;100.00
31062;BME280;17724;53.546;9.974;2024-01-15T10:24:32;99349.34;;;3.19;100.00
31062;BME280;17724;53.546;9.974;2024-01-15T10:28:33;99350.34;;;2.67;100.00
31062;BME280;17724;53.546;9.974;2024-01-15T10:32:33;99359.44;;;3.07;100.00
31062;BME280;17724;53.546;9.974;2024-01-15T10:36:34;99351.75;;;2.87;100.00
31062;BME280;17724;53.546;9.974;2024-01-15T10:40:34;99368.69;;;3.06;100.00
31062;BME280;17724;53.546;9.974;2024-01-15T10:44:35;99363.38;;;2.99;100.00
31062;BME280;17724;53.546;9.974;2024-01-15T10:48:36;99367.81;;;2.60;100.00
31062;BME280;17724;53.546;9.974;2024-01-15T10:52:37;99366.34;;;2.40;100.00
31062;BME280;17724;53.546;9.974;2024-01-15T10:56:39;99375.66;;;2.44;100.00
31062;BME280;17724;53.546;9.974;2024-01-15T11:00:39;99371.97;;;2.51;100.00
31062;BME280;17724;53.546;9.974;2024-01-15T11:04:40;99373.34;;;2.65;100.00
31062;BME280;17724;53.546;9.974;2024-01-15T11:08:42;99370.25;;;2.33;100.00
31062;BME280;17724;53.546;9.974;2024-01-15T11:12:43;99381.19;;;2.50;100.00
31062;BME280;17724;53.546;9.974;2024-01-15T11:16:54;99375.66;;;2.73;100.00
31062;BME280;17724;53.546;9.974;2024-01-15T11:25:18;99371.31;;;3.01;100.00
31062;BME280;17724;53.546;9.974;2024-01-15T11:29:30;99375.03;;;3.11;100.00
31062;BME280;17724;53.546;9.974;2024-01-15T11:33:32;99385.75;;;3.35;100.00
31062;BME280;17724;53.546;9.974;2024-01-15T11:41:55;99388.31;;;3.41;100.00
31062;BME280;17724;53.546;9.974;2024-01-15T11:45:56;99395.09;;;3.56;100.00
31062;BME280;17724;53.546;9.974;2024-01-15T11:54:08;99402.25;;;3.62;100.00
31062;BME280;17724;53.546;9.974;2024-01-15T11:58:12;99396.72;;;3.40;100.00
31062;BME280;17724;53.546;9.974;2024-01-15T12:02:12;99401.97;;;3.30;100.00
31062;BME280;17724;53.546;9.974;2024-01-15T12:06:14;99405.63;;;3.35;100.00
31062;BME280;17724;53.546;9.974;2024-01-15T12:10:19;99402.72;;;3.42;100.00
31062;BME280;17724;53.546;9.974;2024-01-15T12:14:21;99404.88;;;3.40;100.00
31062;BME280;17724;53.546;9.974;2024-01-15T12:18:22;99409.97;;;3.53;100.00
31062;BME280;17724;53.546;9.974;2024-01-15T12:22:23;99416.56;;;3.57;100.00
31062;BME280;17724;53.546;9.974;2024-01-15T12:26:23;99425.31;;;3.59;100.00
31062;BME280;17724;53.546;9.974;2024-01-15T12:30:26;99429.34;;;3.57;100.00
31062;BME280;17724;53.546;9.974;2024-01-15T12:34:30;99425.13;;;3.49;100.00
31062;BME280;17724;53.546;9.974;2024-01-15T12:38:31;99437.50;;;3.57;100.00
31062;BME280;17724;53.546;9.974;2024-01-15T12:42:36;99435.25;;;3.54;100.00
31062;BME280;17724;53.546;9.974;2024-01-15T12:46:37;99445.72;;;3.62;100.00
31062;BME280;17724;53.546;9.974;2024-01-15T12:50:37;99458.91;;;3.53;100.00
31062;BME280;17724;53.546;9.974;2024-01-15T12:54:38;99446.22;;;3.59;100.00
31062;BME280;17724;53.546;9.974;2024-01-15T12:58:38;99454.78;;;3.51;100.00
31062;BME280;17724;53.546;9.974;2024-01-15T13:02:39;99452.16;;;3.56;100.00
31062;BME280;17724;53.546;9.974;2024-01-15T13:06:42;99454.97;;;3.61;100.00
31062;BME280;17724;53.546;9.974;2024-01-15T13:10:43;99451.34;;;3.55;100.00
31062;BME280;17724;53.546;9.974;2024-01-15T13:14:44;99457.09;;;3.59;100.00
31062;BME280;17724;53.546;9.974;2024-01-15T13:18:45;99454.16;;;3.60;100.00
31062;BME280;17724;53.546;9.974;2024-01-15T13:22:45;99460.06;;;3.57;100.00
31062;BME280;17724;53.546;9.974;2024-01-15T13:26:46;99470.84;;;3.52;100.00
31062;BME280;17724;53.546;9.974;2024-01-15T13:30:47;99478.34;;;3.62;100.00
31062;BME280;17724;53.546;9.974;2024-01-15T13:34:48;99478.44;;;3.67;100.00
31062;BME280;17724;53.546;9.974;2024-01-15T13:38:52;99487.38;;;3.51;100.00
31062;BME280;17724;53.546;9.974;2024-01-15T13:42:56;99492.53;;;3.64;100.00
31062;BME280;17724;53.546;9.974;2024-01-15T13:46:57;99491.31;;;3.72;100.00
31062;BME280;17724;53.546;9.974;2024-01-15T13:50:58;99495.41;;;3.74;100.00
31062;BME280;17724;53.546;9.974;2024-01-15T13:54:59;99495.59;;;3.67;100.00
31062;BME280;17724;53.546;9.974;2024-01-15T13:58:59;99495.47;;;3.62;100.00
31062;BME280;17724;53.546;9.974;2024-01-15T14:03:00;99502.81;;;3.62;100.00
31062;BME280;17724;53.546;9.974;2024-01-15T14:07:00;99499.13;;;3.68;100.00
31062;BME280;17724;53.546;9.974;2024-01-15T14:11:01;99510.56;;;3.70;100.00
31062;BME280;17724;53.546;9.974;2024-01-15T14:15:02;99503.34;;;3.76;100.00
31062;BME280;17724;53.546;9.974;2024-01-15T14:19:04;99507.50;;;3.50;100.00
31062;BME280;17724;53.546;9.974;2024-01-15T14:23:06;99520.59;;;3.53;100.00
31062;BME280;17724;53.546;9.974;2024-01-15T14:27:07;99525.97;;;3.64;100.00
31062;BME280;17724;53.546;9.974;2024-01-15T14:31:07;99523.66;;;3.56;100.00
31062;BME280;17724;53.546;9.974;2024-01-15T14:35:08;99533.72;;;3.56;100.00
31062;BME280;17724;53.546;9.974;2024-01-15T14:39:11;99532.09;;;3.43;100.00
31062;BME280;17724;53.546;9.974;2024-01-15T14:43:11;99546.53;;;3.43;100.00
31062;BME280;17724;53.546;9.974;2024-01-15T14:47:12;99542.59;;;3.51;100.00
31062;BME280;17724;53.546;9.974;2024-01-15T14:51:12;99547.69;;;3.48;100.00
31062;BME280;17724;53.546;9.974;2024-01-15T14:55:13;99552.38;;;3.24;100.00
31062;BME280;17724;53.546;9.974;2024-01-15T14:59:14;99564.59;;;3.38;100.00
31062;BME280;17724;53.546;9.974;2024-01-15T15:03:14;99565.84;;;3.18;100.00
31062;BME280;17724;53.546;9.974;2024-01-15T15:07:15;99576.34;;;3.27;100.00
31062;BME280;17724;53.546;9.974;2024-01-15T15:11:16;99575.16;;;3.22;100.00
31062;BME280;17724;53.546;9.974;2024-01-15T15:15:16;99579.41;;;3.18;100.00
31062;BME280;17724;53.546;9.974;2024-01-15T15:19:18;99585.81;;;3.24;100.00
31062;BME280;17724;53.546;9.974;2024-01-15T15:23:19;99586.72;;;3.30;100.00
31062;BME280;17724;53.546;9.974;2024-01-15T15:27:19;99605.28;;;3.21;100.00
31062;BME280;17724;53.546;9.974;2024-01-15T15:31:20;99611.94;;;3.13;100.00
31062;BME280;17724;53.546;9.974;2024-01-15T15:35:20;99609.09;;;3.20;100.00
31062;BME280;17724;53.546;9.974;2024-01-15T15:39:21;99601.66;;;3.15;100.00
31062;BME280;17724;53.546;9.974;2024-01-15T15:43:21;99621.69;;;3.26;100.00
31062;BME280;17724;53.546;9.974;2024-01-15T15:47:22;99625.59;;;3.30;100.00
31062;BME280;17724;53.546;9.974;2024-01-15T15:51:22;99635.91;;;3.16;100.00
31062;BME280;17724;53.546;9.974;2024-01-15T15:55:23;99634.50;;;3.02;100.00
31062;BME280;17724;53.546;9.974;2024-01-15T15:59:24;99644.41;;;3.20;100.00
31062;BME280;17724;53.546;9.974;2024-01-15T16:03:25;99656.81;;;3.28;100.00
31062;BME280;17724;53.546;9.974;2024-01-15T16:07:26;99656.44;;;3.36;100.00
31062;BME280;17724;53.546;9.974;2024-01-15T16:11:29;99658.19;;;3.30;100.00
31062;BME280;17724;53.546;9.974;2024-01-15T16:15:29;99660.44;;;3.33;100.00
31062;BME280;17724;53.546;9.974;2024-01-15T16:19:30;99663.53;;;3.25;100.00
31062;BME280;17724;53.546;9.974;2024-01-15T16:23:30;99667.16;;;3.31;100.00
31062;BME280;17724;53.546;9.974;2024-01-15T16:27:31;99682.28;;;3.38;100.00
31062;BME280;17724;53.546;9.974;2024-01-15T16:31:33;99672.94;;;3.46;100.00
31062;BME280;17724;53.546;9.974;2024-01-15T16:35:34;99666.69;;;3.34;100.00
31062;BME280;17724;53.546;9.974;2024-01-15T16:39:34;99678.19;;;3.24;100.00
31062;BME280;17724;53.546;9.974;2024-01-15T16:43:35;99670.75;;;3.31;100.00
31062;BME280;17724;53.546;9.974;2024-01-15T16:47:35;99676.28;;;3.13;100.00
31062;BME280;17724;53.546;9.974;2024-01-15T16:51:36;99683.81;;;3.34;100.00
31062;BME280;17724;53.546;9.974;2024-01-15T16:55:36;99689.41;;;3.28;100.00
31062;BME280;17724;53.546;9.974;2024-01-15T16:59:37;99693.06;;;3.21;100.00
31062;BME280;17724;53.546;9.974;2024-01-15T17:03:37;99700.03;;;3.29;100.00
31062;BME280;17724;53.546;9.974;2024-01-15T17:07:37;99703.72;;;3.00;100.00
31062;BME280;17724;53.546;9.974;2024-01-15T17:11:38;99707.81;;;3.02;100.00
31062;BME280;17724;53.546;9.974;2024-01-15T17:15:38;99709.13;;;2.88;100.00
31062;BME280;17724;53.546;9.974;2024-01-15T17:19:39;99697.66;;;2.97;100.00
31062;BME280;17724;53.546;9.974;2024-01-15T17:23:39;99721.53;;;3.07;100.00
31062;BME280;17724;53.546;9.974;2024-01-15T17:27:40;99713.72;;;3.22;100.00
31062;BME280;17724;53.546;9.974;2024-01-15T17:31:41;99712.56;;;2.83;100.00
31062;BME280;17724;53.546;9.974;2024-01-15T17:36:02;99719.75;;;3.13;100.00
31062;BME280;17724;53.546;9.974;2024-01-15T17:40:03;99718.13;;;3.12;100.00
31062;BME280;17724;53.546;9.974;2024-01-15T17:44:04;99720.13;;;3.05;100.00
31062;BME280;17724;53.546;9.974;2024-01-15T17:48:07;99723.41;;;3.42;100.00
31062;BME280;17724;53.546;9.974;2024-01-15T17:52:11;99715.03;;;2.85;100.00
31062;BME280;17724;53.546;9.974;2024-01-15T17:56:11;99723.34;;;2.48;100.00
31062;BME280;17724;53.546;9.974;2024-01-15T18:00:12;99723.94;;;2.20;100.00
31062;BME280;17724;53.546;9.974;2024-01-15T18:04:14;99730.47;;;2.01;100.00
31062;BME280;17724;53.546;9.974;2024-01-15T18:08:20;99734.38;;;2.05;100.00
31062;BME280;17724;53.546;9.974;2024-01-15T18:12:20;99730.38;;;2.37;100.00
31062;BME280;17724;53.546;9.974;2024-01-15T18:16:21;99749.00;;;2.76;100.00
31062;BME280;17724;53.546;9.974;2024-01-15T18:20:25;99761.03;;;2.68;100.00
31062;BME280;17724;53.546;9.974;2024-01-15T18:24:28;99772.63;;;2.99;100.00
31062;BME280;17724;53.546;9.974;2024-01-15T18:28:28;99774.16;;;2.83;100.00
31062;BME280;17724;53.546;9.974;2024-01-15T18:32:29;99775.78;;;2.42;100.00
31062;BME280;17724;53.546;9.974;2024-01-15T18:36:29;99768.16;;;2.51;100.00
31062;BME280;17724;53.546;9.974;2024-01-15T18:40:30;99772.50;;;2.82;100.00
31062;BME280;17724;53.546;9.974;2024-01-15T18:44:35;99766.78;;;2.30;100.00
31062;BME280;17724;53.546;9.974;2024-01-15T18:48:35;99770.00;;;2.38;100.00
31062;BME280;17724;53.546;9.974;2024-01-15T18:52:36;99761.50;;;2.77;100.00
31062;BME280;17724;53.546;9.974;2024-01-15T18:56:40;99749.84;;;2.46;100.00
31062;BME280;17724;53.546;9.974;2024-01-15T19:00:41;99759.56;;;2.95;100.00
31062;BME280;17724;53.546;9.974;2024-01-15T19:04:43;99768.34;;;2.67;100.00
31062;BME280;17724;53.546;9.974;2024-01-15T19:08:43;99775.38;;;3.10;100.00
31062;BME280;17724;53.546;9.974;2024-01-15T19:12:44;99764.31;;;3.24;100.00
31062;BME280;17724;53.546;9.974;2024-01-15T19:16:44;99774.09;;;3.13;100.00
31062;BME280;17724;53.546;9.974;2024-01-15T19:20:46;99764.97;;;2.84;100.00
31062;BME280;17724;53.546;9.974;2024-01-15T19:24:47;99760.81;;;2.81;100.00
31062;BME280;17724;53.546;9.974;2024-01-15T19:28:48;99754.47;;;3.11;100.00
31062;BME280;17724;53.546;9.974;2024-01-15T19:32:49;99759.91;;;3.22;100.00
31062;BME280;17724;53.546;9.974;2024-01-15T19:36:49;99772.66;;;3.10;100.00
31062;BME280;17724;53.546;9.974;2024-01-15T19:40:49;99775.44;;;2.68;100.00
31062;BME280;17724;53.546;9.974;2024-01-15T19:44:50;99768.91;;;2.28;100.00
31062;BME280;17724;53.546;9.974;2024-01-15T19:48:51;99767.16;;;2.75;100.00
31062;BME280;17724;53.546;9.974;2024-01-15T19:52:52;99754.81;;;2.19;100.00
31062;BME280;17724;53.546;9.974;2024-01-15T19:56:52;99767.75;;;2.35;100.00
31062;BME280;17724;53.546;9.974;2024-01-15T20:00:53;99788.50;;;2.30;100.00
31062;BME280;17724;53.546;9.974;2024-01-15T20:04:53;99793.66;;;2.19;100.00
31062;BME280;17724;53.546;9.974;2024-01-15T20:08:54;99783.31;;;2.28;100.00
31062;BME280;17724;53.546;9.974;2024-01-15T20:12:54;99801.63;;;2.14;100.00
31062;BME280;17724;53.546;9.974;2024-01-15T20:16:57;99800.94;;;2.19;100.00
31062;BME280;17724;53.546;9.974;2024-01-15T20:21:01;99806.16;;;2.02;100.00
31062;BME280;17724;53.546;9.974;2024-01-15T20:25:02;99807.97;;;2.57;100.00
31062;BME280;17724;53.546;9.974;2024-01-15T20:29:02;99818.28;;;2.78;100.00
31062;BME280;17724;53.546;9.974;2024-01-15T20:33:03;99819.06;;;2.97;100.00
31062;BME280;17724;53.546;9.974;2024-01-15T20:37:04;99828.09;;;3.21;100.00
31062;BME280;17724;53.546;9.974;2024-01-15T20:41:05;99843.19;;;3.17;100.00
31062;BME280;17724;53.546;9.974;2024-01-15T20:45:06;99849.91;;;3.14;100.00
31062;BME280;17724;53.546;9.974;2024-01-15T20:49:09;99845.56;;;3.25;100.00
31062;BME280;17724;53.546;9.974;2024-01-15T20:53:09;99852.19;;;3.29;100.00
31062;BME280;17724;53.546;9.974;2024-01-15T20:57:10;99871.25;;;3.41;100.00
31062;BME280;17724;53.546;9.974;2024-01-15T21:01:10;99892.31;;;3.69;100.00
31062;BME280;17724;53.546;9.974;2024-01-15T21:05:11;99892.97;;;3.41;100.00
31062;BME280;17724;53.546;9.974;2024-01-15T21:09:12;99895.09;;;3.39;100.00
31062;BME280;17724;53.546;9.974;2024-01-15T21:13:12;99914.34;;;3.37;100.00
31062;BME280;17724;53.546;9.974;2024-01-15T21:17:13;99916.19;;;3.55;100.00
31062;BME280;17724;53.546;9.974;2024-01-15T21:21:13;99898.44;;;3.53;100.00
31062;BME280;17724;53.546;9.974;2024-01-15T21:25:14;99917.81;;;3.44;100.00
31062;BME280;17724;53.546;9.974;2024-01-15T21:29:14;99922.56;;;3.19;100.00